createdAt,value
2022-10-26T00:01:42.328Z,42.40
2022-10-26T00:04:10.300Z,60.53
2022-10-26T00:06:38.176Z,102.90
2022-10-26T00:09:07.395Z,39.00
2022-10-26T00:11:35.246Z,84.87
2022-10-26T00:14:03.109Z,70.53
2022-10-26T00:16:31.373Z,70.83
2022-10-26T00:18:59.207Z,27.40
2022-10-26T00:21:27.200Z,45.67
2022-10-26T00:23:55.044Z,47.23
2022-10-26T00:26:24.290Z,29.90
2022-10-26T00:28:54.423Z,20.30
2022-10-26T00:31:22.273Z,39.40
2022-10-26T00:33:53.704Z,19.13
2022-10-26T00:36:21.607Z,73.40
2022-10-26T00:38:50.564Z,15.77
2022-10-26T00:41:20.171Z,74.63
2022-10-26T00:43:50.043Z,49.90
2022-10-26T00:46:21.384Z,73.63
2022-10-26T00:48:53.503Z,36.40
2022-10-26T00:51:26.652Z,35.40
2022-10-26T00:53:55.682Z,34.30
2022-10-26T00:56:24.628Z,27.70
2022-10-26T00:58:54.353Z,23.00
2022-10-26T01:01:22.327Z,27.97
2022-10-26T01:03:50.838Z,30.50
2022-10-26T01:06:19.085Z,32.13
2022-10-26T01:08:47.681Z,45.60
2022-10-26T01:11:16.006Z,30.83
2022-10-26T01:13:45.602Z,21.80
2022-10-26T01:16:38.345Z,21.20
2022-10-26T01:19:32.663Z,32.87
2022-10-26T01:22:04.222Z,19.67
2022-10-26T01:24:59.388Z,19.60
2022-10-26T01:27:30.751Z,25.90
2022-10-26T01:30:15.715Z,33.40
2022-10-26T01:32:49.442Z,40.40
2022-10-26T01:35:23.957Z,19.50
2022-10-26T01:37:58.788Z,15.87
2022-10-26T01:40:30.969Z,34.80
2022-10-26T01:43:03.994Z,8.63
2022-10-26T01:45:35.526Z,43.40
2022-10-26T01:48:05.331Z,45.90
2022-10-26T01:50:34.003Z,41.80
2022-10-26T01:53:01.896Z,19.27
2022-10-26T01:55:48.190Z,11.93
2022-10-26T01:58:37.742Z,12.57
2022-10-26T02:01:18.081Z,11.67
2022-10-26T02:03:51.459Z,34.67
2022-10-26T02:06:30.413Z,17.27
2022-10-26T02:09:13.005Z,17.40
2022-10-26T02:11:44.136Z,11.27
2022-10-26T02:14:19.037Z,6.80
2022-10-26T02:16:56.322Z,5.87
2022-10-26T02:19:34.772Z,14.20
2022-10-26T02:22:08.779Z,8.17
2022-10-26T02:24:39.100Z,7.30
2022-10-26T02:27:11.006Z,14.83
2022-10-26T02:29:40.799Z,8.40
2022-10-26T02:32:10.919Z,4.93
2022-10-26T02:34:41.015Z,6.07
2022-10-26T02:37:09.653Z,6.60
2022-10-26T02:39:41.208Z,6.67
2022-10-26T02:42:10.786Z,5.40
2022-10-26T02:44:45.484Z,4.63
2022-10-26T02:47:15.028Z,5.20
2022-10-26T02:49:43.283Z,5.07
2022-10-26T02:52:19.092Z,5.53
2022-10-26T02:54:54.631Z,5.93
2022-10-26T02:57:27.463Z,5.57
2022-10-26T02:59:56.877Z,5.37
2022-10-26T03:02:26.231Z,5.60
2022-10-26T03:04:55.865Z,5.50
2022-10-26T03:07:24.623Z,5.20
2022-10-26T03:09:52.810Z,7.77
2022-10-26T03:12:21.112Z,5.80
2022-10-26T03:14:48.960Z,4.93
2022-10-26T03:17:16.803Z,5.13
2022-10-26T03:19:46.047Z,5.23
2022-10-26T03:22:13.909Z,4.87
2022-10-26T03:24:41.714Z,5.67
2022-10-26T03:27:09.646Z,5.80
2022-10-26T03:29:37.471Z,5.07
2022-10-26T03:32:05.758Z,9.93
2022-10-26T03:34:33.633Z,5.87
2022-10-26T03:37:02.985Z,4.73
2022-10-26T03:39:30.945Z,4.93
2022-10-26T03:41:59.514Z,6.67
2022-10-26T03:44:27.381Z,6.80
2022-10-26T03:46:55.241Z,5.27
2022-10-26T03:49:23.068Z,5.70
2022-10-26T03:51:50.930Z,5.53
2022-10-26T03:54:20.110Z,5.33
2022-10-26T03:56:52.580Z,6.40
2022-10-26T03:59:22.913Z,5.03
2022-10-26T04:01:54.024Z,5.60
2022-10-26T04:04:24.859Z,5.30
2022-10-26T04:06:53.070Z,4.90
2022-10-26T04:09:22.287Z,7.17
2022-10-26T04:11:50.115Z,5.67
2022-10-26T04:14:17.986Z,6.13
2022-10-26T04:16:45.799Z,5.50
2022-10-26T04:19:13.654Z,5.87
2022-10-26T04:21:41.507Z,5.57
2022-10-26T04:24:11.072Z,5.10
2022-10-26T04:26:40.410Z,5.47
2022-10-26T04:29:09.267Z,7.13
2022-10-26T04:31:37.174Z,5.27
2022-10-26T04:34:05.129Z,5.60
2022-10-26T04:36:32.983Z,8.63
2022-10-26T04:39:00.807Z,6.97
2022-10-26T04:41:28.664Z,6.43
2022-10-26T04:43:58.315Z,5.80
2022-10-26T04:46:26.174Z,6.63
2022-10-26T04:48:54.027Z,7.33
2022-10-26T04:51:21.847Z,8.80
2022-10-26T04:53:49.674Z,5.73
2022-10-26T04:56:17.535Z,6.20
2022-10-26T04:58:45.371Z,6.27
2022-10-26T05:01:14.734Z,7.77
2022-10-26T05:03:42.660Z,6.20
2022-10-26T05:06:10.567Z,6.30
2022-10-26T05:08:38.370Z,5.57
2022-10-26T05:11:06.580Z,5.20
2022-10-26T05:13:34.447Z,5.60
2022-10-26T05:16:02.579Z,5.33
2022-10-26T05:18:31.855Z,5.43
2022-10-26T05:20:59.744Z,5.40
2022-10-26T05:23:27.715Z,5.80
2022-10-26T05:25:56.801Z,6.00
2022-10-26T05:28:24.683Z,6.87
2022-10-26T05:30:52.523Z,7.13
2022-10-26T05:33:20.335Z,7.33
2022-10-26T05:35:49.550Z,6.70
2022-10-26T05:38:18.702Z,7.37
2022-10-26T05:40:50.345Z,7.47
2022-10-26T05:43:18.617Z,6.80
2022-10-26T05:45:46.706Z,5.90
2022-10-26T05:48:14.694Z,6.33
2022-10-26T05:50:42.667Z,6.77
2022-10-26T05:53:11.928Z,7.43
2022-10-26T05:55:40.461Z,7.67
2022-10-26T05:58:12.183Z,7.37
2022-10-26T06:00:50.382Z,7.03
2022-10-26T06:06:06.613Z,6.97
2022-10-26T06:08:37.355Z,7.83
2022-10-26T06:11:07.110Z,7.80
2022-10-26T06:13:35.615Z,9.07
2022-10-26T06:16:23.556Z,10.77
2022-10-26T06:19:02.129Z,12.30
2022-10-26T06:21:51.466Z,11.87
2022-10-26T06:24:28.115Z,12.60
2022-10-26T06:27:04.658Z,13.77
2022-10-26T06:29:43.098Z,12.67
2022-10-26T06:32:12.120Z,11.20
2022-10-26T06:34:46.786Z,8.67
2022-10-26T06:37:15.174Z,9.93
2022-10-26T06:39:48.971Z,9.07
2022-10-26T06:42:20.624Z,8.93
2022-10-26T06:44:49.217Z,7.70
2022-10-26T06:47:24.501Z,6.30
2022-10-26T06:50:04.927Z,6.33
2022-10-26T06:52:37.242Z,5.10
2022-10-26T06:55:09.576Z,5.40
2022-10-26T06:57:39.927Z,5.00
2022-10-26T07:00:09.691Z,6.30
2022-10-26T07:02:37.591Z,6.10
2022-10-26T07:05:10.206Z,7.90
2022-10-26T07:07:41.472Z,8.63
2022-10-26T07:10:11.307Z,9.33
2022-10-26T07:12:39.252Z,7.30
2022-10-26T07:17:44.293Z,6.67
2022-10-26T07:20:13.069Z,7.13
2022-10-26T07:22:42.728Z,6.53
2022-10-26T07:25:12.730Z,6.13
2022-10-26T07:27:40.744Z,7.53
2022-10-26T07:30:09.824Z,8.50
2022-10-26T07:32:37.643Z,7.20
2022-10-26T07:35:06.328Z,7.07
2022-10-26T07:37:34.186Z,7.67
2022-10-26T07:40:05.661Z,6.13
2022-10-26T07:42:37.152Z,6.63
2022-10-26T07:45:06.430Z,6.03
2022-10-26T07:47:34.367Z,7.43
2022-10-26T07:50:03.368Z,6.93
2022-10-26T07:55:05.474Z,6.93
2022-10-26T07:57:33.293Z,6.27
2022-10-26T08:00:03.029Z,7.97
2022-10-26T08:02:30.826Z,6.73
2022-10-26T08:04:58.649Z,7.47
2022-10-26T08:07:26.750Z,9.40
2022-10-26T08:09:54.596Z,8.23
2022-10-26T08:12:22.709Z,9.23
2022-10-26T08:14:50.560Z,8.20
2022-10-26T08:17:21.671Z,7.73
2022-10-26T08:19:50.351Z,7.13
2022-10-26T08:22:18.299Z,7.40
2022-10-26T08:24:46.958Z,8.80
2022-10-26T08:27:15.275Z,9.47
2022-10-26T08:29:44.042Z,10.23
2022-10-26T08:32:11.948Z,8.60
2022-10-26T08:34:41.254Z,9.27
2022-10-26T08:37:09.152Z,11.70
2022-10-26T08:39:37.146Z,44.23
2022-10-26T08:42:11.901Z,30.77
2022-10-26T08:44:45.498Z,14.87
2022-10-26T08:49:59.970Z,10.20
2022-10-26T08:52:34.292Z,9.73
2022-10-26T08:55:05.257Z,10.40
2022-10-26T08:57:41.326Z,10.57
2022-10-26T09:00:15.110Z,10.43
2022-10-26T09:02:43.044Z,9.73
2022-10-26T09:05:18.112Z,11.63
2022-10-26T09:07:57.222Z,11.30
2022-10-26T09:10:38.799Z,8.40
2022-10-26T09:13:16.823Z,8.60
2022-10-26T09:15:58.738Z,8.13
2022-10-26T09:18:36.407Z,7.40
2022-10-26T09:21:21.919Z,9.27
2022-10-26T09:24:01.536Z,7.83
2022-10-26T09:26:33.849Z,8.30
2022-10-26T09:29:05.948Z,7.37
2022-10-26T09:31:43.141Z,7.77
2022-10-26T09:34:21.843Z,7.70
2022-10-26T09:36:55.199Z,9.57
2022-10-26T09:39:31.110Z,8.47
2022-10-26T09:42:03.082Z,7.47
2022-10-26T09:44:37.512Z,8.00
2022-10-26T09:47:11.168Z,8.00
2022-10-26T09:49:48.701Z,9.73
2022-10-26T09:52:18.498Z,8.13
2022-10-26T09:54:46.652Z,7.80
2022-10-26T09:57:17.492Z,7.60
2022-10-26T09:59:50.017Z,7.40
2022-10-26T10:02:40.014Z,8.17
2022-10-26T10:08:21.380Z,6.47
2022-10-26T10:11:03.989Z,7.33
2022-10-26T10:13:34.178Z,7.20
2022-10-26T10:16:06.563Z,7.23
2022-10-26T10:18:35.525Z,8.83
2022-10-26T10:21:05.821Z,5.97
2022-10-26T10:23:37.205Z,8.23
2022-10-26T10:26:07.837Z,6.53
2022-10-26T10:28:36.328Z,6.33
2022-10-26T10:31:06.230Z,6.00
2022-10-26T10:33:36.261Z,7.73
2022-10-26T10:36:07.513Z,6.67
2022-10-26T10:38:41.320Z,6.53
2022-10-26T10:41:18.437Z,7.80
2022-10-26T10:43:52.924Z,6.33
2022-10-26T10:46:24.089Z,6.83
2022-10-26T10:48:56.169Z,6.40
2022-10-26T10:51:26.650Z,6.40
2022-10-26T10:53:56.967Z,6.47
2022-10-26T10:56:42.633Z,5.60
2022-10-26T10:59:46.477Z,5.97
2022-10-26T11:02:34.724Z,7.87
2022-10-26T11:05:22.052Z,6.00
2022-10-26T11:07:59.404Z,6.13
2022-10-26T11:10:37.968Z,5.77
2022-10-26T11:13:13.942Z,7.10
2022-10-26T11:15:45.661Z,5.97
2022-10-26T11:18:18.337Z,7.83
2022-10-26T11:20:52.298Z,5.50
2022-10-26T11:23:24.943Z,5.93
2022-10-26T11:25:57.458Z,7.27
2022-10-26T11:28:35.654Z,5.73
2022-10-26T11:31:08.312Z,5.47
2022-10-26T11:33:41.863Z,5.53
2022-10-26T11:36:17.237Z,7.67
2022-10-26T11:38:57.070Z,5.93
2022-10-26T11:41:34.333Z,5.80
2022-10-26T11:44:12.155Z,4.60
2022-10-26T11:46:43.890Z,5.60
2022-10-26T11:49:18.606Z,5.10
2022-10-26T11:51:53.152Z,4.70
2022-10-26T11:54:32.164Z,6.43
2022-10-26T11:57:02.846Z,6.27
2022-10-26T11:59:34.086Z,5.23
2022-10-26T12:02:06.953Z,5.23
2022-10-26T12:04:38.963Z,4.97
2022-10-26T12:07:14.619Z,5.23
2022-10-26T12:09:45.386Z,5.93
2022-10-26T12:12:21.159Z,5.60
2022-10-26T12:14:57.505Z,5.20
2022-10-26T12:17:32.129Z,5.40
2022-10-26T12:20:06.330Z,4.83
2022-10-26T12:22:37.967Z,5.10
2022-10-26T12:25:14.698Z,6.23
2022-10-26T12:27:58.441Z,5.67
2022-10-26T12:30:31.743Z,5.83
2022-10-26T12:33:02.225Z,4.03
2022-10-26T12:35:41.734Z,9.63
2022-10-26T12:38:49.631Z,4.50
2022-10-26T12:41:23.367Z,5.00
2022-10-26T12:43:57.635Z,4.67
2022-10-26T12:46:45.423Z,5.30
2022-10-26T12:49:46.116Z,4.37
2022-10-26T12:52:28.824Z,5.40
2022-10-26T12:55:19.393Z,4.93
2022-10-26T12:57:54.625Z,6.50
2022-10-26T13:00:26.990Z,4.63
2022-10-26T13:03:08.687Z,5.40
2022-10-26T13:06:04.248Z,3.97
2022-10-26T13:08:41.538Z,5.97
2022-10-26T13:11:17.949Z,4.27
2022-10-26T13:13:53.278Z,6.63
2022-10-26T13:16:23.229Z,4.00
2022-10-26T13:18:51.315Z,6.13
2022-10-26T13:21:21.604Z,5.67
2022-10-26T13:23:58.398Z,4.70
2022-10-26T13:26:28.002Z,5.87
2022-10-26T13:28:57.317Z,6.03
2022-10-26T13:31:57.887Z,5.40
2022-10-26T13:34:29.104Z,5.40
2022-10-26T13:37:08.064Z,5.00
2022-10-26T13:39:39.331Z,5.43
2022-10-26T13:42:08.567Z,5.30
2022-10-26T13:44:41.429Z,4.30
2022-10-26T13:47:13.507Z,4.17
2022-10-26T13:49:44.275Z,4.63
2022-10-26T13:52:17.484Z,4.80
2022-10-26T13:54:50.228Z,4.57
2022-10-26T13:57:22.724Z,5.47
2022-10-26T13:59:51.901Z,6.70
2022-10-26T14:02:25.459Z,7.30
2022-10-26T14:04:55.271Z,7.80
2022-10-26T14:07:26.574Z,7.93
2022-10-26T14:09:56.570Z,6.93
2022-10-26T14:12:26.142Z,5.87
2022-10-26T14:14:55.061Z,5.03
2022-10-26T14:17:26.704Z,5.37
2022-10-26T14:19:55.177Z,5.40
2022-10-26T14:22:27.397Z,5.63
2022-10-26T14:24:56.806Z,5.43
2022-10-26T14:27:27.238Z,6.03
2022-10-26T14:32:45.859Z,7.23
2022-10-26T14:35:14.759Z,6.00
2022-10-26T14:37:47.581Z,5.57
2022-10-26T14:40:19.105Z,5.27
2022-10-26T14:42:51.392Z,5.57
2022-10-26T14:45:36.465Z,5.10
2022-10-26T14:48:24.170Z,5.17
2022-10-26T14:51:17.936Z,5.33
2022-10-26T14:53:51.010Z,9.40
2022-10-26T14:56:23.523Z,5.60
2022-10-26T14:58:52.269Z,6.17
2022-10-26T15:01:34.829Z,6.17
2022-10-26T15:04:07.377Z,5.37
2022-10-26T15:06:53.006Z,5.13
2022-10-26T15:09:33.344Z,7.37
2022-10-26T15:12:02.959Z,4.73
2022-10-26T15:14:31.016Z,4.90
2022-10-26T15:17:00.472Z,5.07
2022-10-26T15:19:29.999Z,5.67
2022-10-26T15:21:58.220Z,6.07
2022-10-26T15:24:33.238Z,5.33
2022-10-26T15:27:05.134Z,6.70
2022-10-26T15:29:38.235Z,6.17
2022-10-26T15:32:17.966Z,5.63
2022-10-26T15:34:50.920Z,5.63
2022-10-26T15:37:19.114Z,6.40
2022-10-26T15:39:47.057Z,5.93
2022-10-26T15:42:15.978Z,8.13
2022-10-26T15:44:43.875Z,6.40
2022-10-26T15:47:18.565Z,9.17
2022-10-26T15:49:46.591Z,9.43
2022-10-26T15:52:15.946Z,7.20
2022-10-26T15:54:43.816Z,8.43
2022-10-26T15:57:17.977Z,5.87
2022-10-26T15:59:48.760Z,6.37
2022-10-26T16:02:18.837Z,5.80
2022-10-26T16:04:47.247Z,6.37
2022-10-26T16:07:17.465Z,7.60
2022-10-26T16:09:46.296Z,7.83
2022-10-26T16:12:14.920Z,6.80
2022-10-26T16:15:03.803Z,5.80
2022-10-26T16:17:31.398Z,5.40
2022-10-26T16:20:00.021Z,6.60
2022-10-26T16:22:29.320Z,6.43
2022-10-26T16:24:57.293Z,7.27
2022-10-26T16:27:25.157Z,9.70
2022-10-26T16:29:53.013Z,7.67
2022-10-26T16:32:21.457Z,7.53
2022-10-26T16:34:49.368Z,7.73
2022-10-26T16:37:17.283Z,6.10
2022-10-26T16:39:47.336Z,8.27
2022-10-26T16:42:15.367Z,7.43
2022-10-26T16:44:43.261Z,5.80
2022-10-26T16:47:11.317Z,7.23
2022-10-26T16:49:43.228Z,8.10
2022-10-26T16:52:11.868Z,9.60
2022-10-26T16:54:39.730Z,8.60
2022-10-26T16:57:09.024Z,8.57
2022-10-26T16:59:37.001Z,9.73
2022-10-26T17:02:05.075Z,9.40
2022-10-26T17:04:33.097Z,7.47
2022-10-26T17:07:01.028Z,7.63
2022-10-26T17:09:29.132Z,8.43
2022-10-26T17:12:01.005Z,7.37
2022-10-26T17:14:32.025Z,11.57
2022-10-26T17:16:59.953Z,7.90
2022-10-26T17:19:27.871Z,7.27
2022-10-26T17:21:57.930Z,8.13
2022-10-26T17:24:25.913Z,9.47
2022-10-26T17:26:53.761Z,8.03
2022-10-26T17:29:22.009Z,7.00
2022-10-26T17:31:51.357Z,8.27
2022-10-26T17:34:19.429Z,8.60
2022-10-26T17:36:47.674Z,8.00
2022-10-26T17:39:17.253Z,10.40
2022-10-26T17:41:45.150Z,7.87
2022-10-26T17:44:13.006Z,7.30
2022-10-26T17:46:40.932Z,8.37
2022-10-26T17:49:10.185Z,7.73
2022-10-26T17:51:38.085Z,11.40
2022-10-26T17:54:06.315Z,8.73
2022-10-26T17:56:35.515Z,12.00
2022-10-26T17:59:05.566Z,9.37
2022-10-26T18:01:33.863Z,7.67
2022-10-26T18:04:02.162Z,8.43
2022-10-26T18:06:31.681Z,11.37
2022-10-26T18:08:59.595Z,10.03
2022-10-26T18:11:28.436Z,8.37
2022-10-26T18:14:00.957Z,9.67
2022-10-26T18:16:30.413Z,9.73
2022-10-26T18:19:01.457Z,11.43
2022-10-26T18:21:32.540Z,8.60
2022-10-26T18:24:00.918Z,8.33
2022-10-26T18:26:30.142Z,9.03
2022-10-26T18:28:59.383Z,8.60
2022-10-26T18:31:28.917Z,8.30
2022-10-26T18:33:57.304Z,9.03
2022-10-26T18:36:25.574Z,8.57
2022-10-26T18:38:55.429Z,9.90
2022-10-26T18:41:24.813Z,8.67
2022-10-26T18:43:54.343Z,9.90
2022-10-26T18:46:24.729Z,9.77
2022-10-26T18:48:53.021Z,10.07
2022-10-26T18:51:23.256Z,11.47
2022-10-26T18:53:51.157Z,14.87
2022-10-26T18:56:23.026Z,11.07
2022-10-26T18:58:53.256Z,10.70
2022-10-26T19:01:23.328Z,9.63
2022-10-26T19:03:55.071Z,10.03
2022-10-26T19:06:24.890Z,7.93
2022-10-26T19:08:53.736Z,8.43
2022-10-26T19:11:24.965Z,9.33
2022-10-26T19:13:54.093Z,10.07
2022-10-26T19:19:11.825Z,8.00
2022-10-26T19:21:39.960Z,8.43
2022-10-26T19:24:13.112Z,8.37
2022-10-26T19:26:43.965Z,8.40
2022-10-26T19:29:15.719Z,10.60
2022-10-26T19:31:45.123Z,8.93
2022-10-26T19:34:14.163Z,9.80
2022-10-26T19:36:45.056Z,7.73
2022-10-26T19:39:14.218Z,9.33
2022-10-26T19:41:44.060Z,8.07
2022-10-26T19:44:14.451Z,7.80
2022-10-26T19:46:43.338Z,8.67
2022-10-26T19:49:12.571Z,8.97
2022-10-26T19:51:40.492Z,8.33
2022-10-26T19:54:08.865Z,9.27
2022-10-26T19:56:38.070Z,10.47
2022-10-26T19:59:08.296Z,8.10
2022-10-26T20:01:36.515Z,8.77
2022-10-26T20:04:06.004Z,8.30
2022-10-26T20:06:34.276Z,10.30
2022-10-26T20:09:02.584Z,11.10
2022-10-26T20:11:32.224Z,7.20
2022-10-26T20:14:00.460Z,7.33
2022-10-26T20:16:29.739Z,7.67
2022-10-26T20:18:57.580Z,8.03
2022-10-26T20:21:25.447Z,8.73
2022-10-26T20:23:53.308Z,10.53
2022-10-26T20:26:22.550Z,8.33
2022-10-26T20:28:52.044Z,10.47
2022-10-26T20:31:20.419Z,9.63
2022-10-26T20:33:52.845Z,7.67
2022-10-26T20:36:20.923Z,9.00
2022-10-26T20:38:49.549Z,8.33
2022-10-26T20:41:17.920Z,9.57
2022-10-26T20:43:46.252Z,8.60
2022-10-26T20:46:28.800Z,8.53
2022-10-26T20:48:58.698Z,7.10
2022-10-26T20:51:44.431Z,9.87
2022-10-26T20:54:27.267Z,10.00
2022-10-26T20:56:56.783Z,7.70
2022-10-26T21:02:05.419Z,7.80
2022-10-26T21:04:34.712Z,6.53
2022-10-26T21:07:02.768Z,9.87
2022-10-26T21:09:34.148Z,10.10
2022-10-26T21:12:05.000Z,7.33
2022-10-26T21:14:35.928Z,7.53
2022-10-26T21:17:03.774Z,7.03
2022-10-26T21:19:31.641Z,8.87
2022-10-26T21:22:00.928Z,8.43
2022-10-26T21:24:28.853Z,7.57
2022-10-26T21:26:58.196Z,5.80
2022-10-26T21:29:26.047Z,6.67
2022-10-26T21:31:53.905Z,7.90
2022-10-26T21:34:21.838Z,6.50
2022-10-26T21:36:49.663Z,6.17
2022-10-26T21:39:18.945Z,5.53
2022-10-26T21:41:46.879Z,5.23
2022-10-26T21:44:35.354Z,5.43
2022-10-26T21:47:02.811Z,5.23
2022-10-26T21:49:30.810Z,5.93
2022-10-26T21:51:58.843Z,8.63
2022-10-26T21:54:28.117Z,7.33
2022-10-26T21:56:56.012Z,7.40
2022-10-26T21:59:23.930Z,6.43
2022-10-26T22:01:51.977Z,7.13
2022-10-26T22:04:20.007Z,5.27
2022-10-26T22:06:47.866Z,5.00
2022-10-26T22:09:15.764Z,4.93
2022-10-26T22:11:45.064Z,5.53
2022-10-26T22:14:14.238Z,5.27
2022-10-26T22:16:42.234Z,5.13
2022-10-26T22:19:11.167Z,8.23
2022-10-26T22:21:41.421Z,6.03
2022-10-26T22:24:09.756Z,4.90
2022-10-26T22:26:38.486Z,5.30
2022-10-26T22:29:07.914Z,5.73
2022-10-26T22:31:38.566Z,5.43
2022-10-26T22:34:08.845Z,5.03
2022-10-26T22:36:37.043Z,4.53
2022-10-26T22:39:05.255Z,3.63
2022-10-26T22:41:33.194Z,3.77
2022-10-26T22:44:01.375Z,4.50
2022-10-26T22:46:31.595Z,4.03
2022-10-26T22:49:01.530Z,5.10
2022-10-26T22:51:31.959Z,3.63
2022-10-26T22:54:02.915Z,4.70
2022-10-26T22:56:32.153Z,4.13
2022-10-26T22:59:00.394Z,4.90
2022-10-26T23:01:31.840Z,6.23
2022-10-26T23:04:00.478Z,6.37
2022-10-26T23:06:30.440Z,6.87
2022-10-26T23:08:59.607Z,7.17
2022-10-26T23:11:29.455Z,8.13
2022-10-26T23:13:59.069Z,7.03
2022-10-26T23:16:27.880Z,6.27
2022-10-26T23:18:57.465Z,6.87
2022-10-26T23:21:28.428Z,5.90
2022-10-26T23:23:57.089Z,5.87
2022-10-26T23:26:25.554Z,7.17
2022-10-26T23:28:53.556Z,8.13
2022-10-26T23:31:23.236Z,7.40
2022-10-26T23:33:52.327Z,6.47
2022-10-26T23:36:21.773Z,10.63
2022-10-26T23:38:49.691Z,29.97
2022-10-26T23:41:17.698Z,86.87
2022-10-26T23:43:45.648Z,11.10
2022-10-26T23:46:13.624Z,6.93
2022-10-26T23:48:41.486Z,6.13
2022-10-26T23:51:09.369Z,5.93
2022-10-26T23:53:39.219Z,5.80
2022-10-26T23:56:07.782Z,5.90
2022-10-26T23:58:35.681Z,8.30
